sensor_id;sensor_type;location;lat;lon;timestamp;temperature;humidity
54431;DHT22;40342;52.998;5.862;2023-06-26T00:01:50;23.60;97.10
54431;DHT22;40342;52.998;5.862;2023-06-26T00:04:16;23.70;97.20
54431;DHT22;40342;52.998;5.862;2023-06-26T00:06:42;23.60;97.30
54431;DHT22;40342;52.998;5.862;2023-06-26T00:09:07;23.60;97.40
54431;DHT22;40342;52.998;5.862;2023-06-26T00:11:33;23.60;97.50
54431;DHT22;40342;52.998;5.862;2023-06-26T00:14:00;23.60;97.50
54431;DHT22;40342;52.998;5.862;2023-06-26T00:16:26;23.50;97.60
54431;DHT22;40342;52.998;5.862;2023-06-26T00:18:53;23.50;97.60
54431;DHT22;40342;52.998;5.862;2023-06-26T00:21:18;23.50;97.70
54431;DHT22;40342;52.998;5.862;2023-06-26T00:23:45;23.50;97.80
54431;DHT22;40342;52.998;5.862;2023-06-26T00:26:11;23.40;97.90
54431;DHT22;40342;52.998;5.862;2023-06-26T00:28:36;23.40;98.00
54431;DHT22;40342;52.998;5.862;2023-06-26T00:31:02;23.40;98.10
54431;DHT22;40342;52.998;5.862;2023-06-26T00:33:28;23.40;98.20
54431;DHT22;40342;52.998;5.862;2023-06-26T00:35:53;23.30;98.30
54431;DHT22;40342;52.998;5.862;2023-06-26T00:38:19;23.30;98.40
54431;DHT22;40342;52.998;5.862;2023-06-26T00:40:44;23.30;98.40
54431;DHT22;40342;52.998;5.862;2023-06-26T00:43:10;23.20;98.60
54431;DHT22;40342;52.998;5.862;2023-06-26T00:45:35;23.20;98.70
54431;DHT22;40342;52.998;5.862;2023-06-26T00:48:01;23.20;98.70
54431;DHT22;40342;52.998;5.862;2023-06-26T00:50:27;23.10;98.80
54431;DHT22;40342;52.998;5.862;2023-06-26T00:52:53;23.20;98.90
54431;DHT22;40342;52.998;5.862;2023-06-26T00:55:22;23.10;99.00
54431;DHT22;40342;52.998;5.862;2023-06-26T00:57:47;23.00;99.10
54431;DHT22;40342;52.998;5.862;2023-06-26T01:00:14;23.00;99.20
54431;DHT22;40342;52.998;5.862;2023-06-26T01:02:39;23.10;99.40
54431;DHT22;40342;52.998;5.862;2023-06-26T01:05:06;23.00;99.40
54431;DHT22;40342;52.998;5.862;2023-06-26T01:07:36;22.90;99.90
54431;DHT22;40342;52.998;5.862;2023-06-26T01:10:06;22.90;99.60
54431;DHT22;40342;52.998;5.862;2023-06-26T01:12:33;22.90;99.80
54431;DHT22;40342;52.998;5.862;2023-06-26T01:14:59;22.90;99.90
54431;DHT22;40342;52.998;5.862;2023-06-26T01:17:29;22.90;99.90
54431;DHT22;40342;52.998;5.862;2023-06-26T01:20:02;22.80;99.90
54431;DHT22;40342;52.998;5.862;2023-06-26T01:25:32;22.70;99.90
54431;DHT22;40342;52.998;5.862;2023-06-26T01:28:05;22.80;99.90
54431;DHT22;40342;52.998;5.862;2023-06-26T01:30:32;22.70;99.90
54431;DHT22;40342;52.998;5.862;2023-06-26T01:32:59;22.70;99.90
54431;DHT22;40342;52.998;5.862;2023-06-26T01:35:25;22.70;99.90
54431;DHT22;40342;52.998;5.862;2023-06-26T01:37:51;22.60;99.90
54431;DHT22;40342;52.998;5.862;2023-06-26T01:40:17;22.60;99.90
54431;DHT22;40342;52.998;5.862;2023-06-26T01:42:43;22.50;99.90
54431;DHT22;40342;52.998;5.862;2023-06-26T01:45:25;22.50;99.90
54431;DHT22;40342;52.998;5.862;2023-06-26T01:47:52;22.40;99.90
54431;DHT22;40342;52.998;5.862;2023-06-26T01:50:22;22.30;99.90
54431;DHT22;40342;52.998;5.862;2023-06-26T01:52:53;22.30;99.90
54431;DHT22;40342;52.998;5.862;2023-06-26T01:55:31;22.20;99.90
54431;DHT22;40342;52.998;5.862;2023-06-26T01:57:59;22.20;99.90
54431;DHT22;40342;52.998;5.862;2023-06-26T02:00:25;22.10;99.90
54431;DHT22;40342;52.998;5.862;2023-06-26T02:02:52;22.10;99.90
54431;DHT22;40342;52.998;5.862;2023-06-26T02:05:17;22.00;99.90
54431;DHT22;40342;52.998;5.862;2023-06-26T02:07:43;21.90;99.90
54431;DHT22;40342;52.998;5.862;2023-06-26T02:10:09;21.90;99.90
54431;DHT22;40342;52.998;5.862;2023-06-26T02:12:36;21.90;99.90
54431;DHT22;40342;52.998;5.862;2023-06-26T02:15:02;21.80;99.90
54431;DHT22;40342;52.998;5.862;2023-06-26T02:17:28;21.80;99.90
54431;DHT22;40342;52.998;5.862;2023-06-26T02:19:54;21.80;99.90
54431;DHT22;40342;52.998;5.862;2023-06-26T02:22:19;21.80;99.90
54431;DHT22;40342;52.998;5.862;2023-06-26T02:24:45;21.70;99.90
54431;DHT22;40342;52.998;5.862;2023-06-26T02:27:11;21.70;99.90
54431;DHT22;40342;52.998;5.862;2023-06-26T02:29:37;21.70;99.90
54431;DHT22;40342;52.998;5.862;2023-06-26T02:32:03;21.70;99.90
54431;DHT22;40342;52.998;5.862;2023-06-26T02:34:29;21.70;99.90
54431;DHT22;40342;52.998;5.862;2023-06-26T02:36:55;21.60;99.90
54431;DHT22;40342;52.998;5.862;2023-06-26T02:39:21;21.60;99.90
54431;DHT22;40342;52.998;5.862;2023-06-26T02:41:47;21.70;99.90
54431;DHT22;40342;52.998;5.862;2023-06-26T02:44:13;21.70;99.90
54431;DHT22;40342;52.998;5.862;2023-06-26T02:46:39;21.60;99.90
54431;DHT22;40342;52.998;5.862;2023-06-26T02:49:06;21.60;99.90
54431;DHT22;40342;52.998;5.862;2023-06-26T02:51:33;21.60;99.90
54431;DHT22;40342;52.998;5.862;2023-06-26T02:53:58;21.50;99.90
54431;DHT22;40342;52.998;5.862;2023-06-26T02:56:24;21.50;99.90
54431;DHT22;40342;52.998;5.862;2023-06-26T02:58:54;21.50;99.90
54431;DHT22;40342;52.998;5.862;2023-06-26T03:01:20;21.40;99.90
54431;DHT22;40342;52.998;5.862;2023-06-26T03:03:46;21.30;99.90
54431;DHT22;40342;52.998;5.862;2023-06-26T03:06:12;21.30;99.90
54431;DHT22;40342;52.998;5.862;2023-06-26T03:08:39;21.20;99.90
54431;DHT22;40342;52.998;5.862;2023-06-26T03:11:06;21.20;99.90
54431;DHT22;40342;52.998;5.862;2023-06-26T03:13:33;21.20;99.90
54431;DHT22;40342;52.998;5.862;2023-06-26T03:15:59;21.20;99.90
54431;DHT22;40342;52.998;5.862;2023-06-26T03:18:25;21.10;99.90
54431;DHT22;40342;52.998;5.862;2023-06-26T03:20:51;21.10;99.90
54431;DHT22;40342;52.998;5.862;2023-06-26T03:23:16;21.10;99.90
54431;DHT22;40342;52.998;5.862;2023-06-26T03:25:42;21.10;99.90
54431;DHT22;40342;52.998;5.862;2023-06-26T03:28:07;21.10;99.90
54431;DHT22;40342;52.998;5.862;2023-06-26T03:30:33;21.10;99.90
54431;DHT22;40342;52.998;5.862;2023-06-26T03:32:58;21.00;99.90
54431;DHT22;40342;52.998;5.862;2023-06-26T03:35:24;21.00;99.90
54431;DHT22;40342;52.998;5.862;2023-06-26T03:37:50;21.00;99.90
54431;DHT22;40342;52.998;5.862;2023-06-26T03:40:15;20.90;99.90
54431;DHT22;40342;52.998;5.862;2023-06-26T03:42:41;20.90;99.90
54431;DHT22;40342;52.998;5.862;2023-06-26T03:45:07;20.80;99.90
54431;DHT22;40342;52.998;5.862;2023-06-26T03:47:33;20.80;99.90
54431;DHT22;40342;52.998;5.862;2023-06-26T03:49:58;20.80;99.90
54431;DHT22;40342;52.998;5.862;2023-06-26T03:52:24;20.70;99.90
54431;DHT22;40342;52.998;5.862;2023-06-26T03:54:50;20.70;99.90
54431;DHT22;40342;52.998;5.862;2023-06-26T03:57:15;20.70;99.90
54431;DHT22;40342;52.998;5.862;2023-06-26T03:59:41;20.70;99.90
54431;DHT22;40342;52.998;5.862;2023-06-26T04:02:06;20.60;99.90
54431;DHT22;40342;52.998;5.862;2023-06-26T04:04:32;20.50;99.90
54431;DHT22;40342;52.998;5.862;2023-06-26T04:06:58;20.50;99.90
54431;DHT22;40342;52.998;5.862;2023-06-26T04:09:25;20.50;99.90
54431;DHT22;40342;52.998;5.862;2023-06-26T04:11:50;20.40;99.90
54431;DHT22;40342;52.998;5.862;2023-06-26T04:14:16;20.40;99.90
54431;DHT22;40342;52.998;5.862;2023-06-26T04:16:42;20.40;99.90
54431;DHT22;40342;52.998;5.862;2023-06-26T04:19:07;20.40;99.90
54431;DHT22;40342;52.998;5.862;2023-06-26T04:21:35;20.40;99.90
54431;DHT22;40342;52.998;5.862;2023-06-26T04:24:01;20.30;99.90
54431;DHT22;40342;52.998;5.862;2023-06-26T04:26:26;20.40;99.90
54431;DHT22;40342;52.998;5.862;2023-06-26T04:28:53;20.30;99.90
54431;DHT22;40342;52.998;5.862;2023-06-26T04:31:19;20.30;99.90
54431;DHT22;40342;52.998;5.862;2023-06-26T04:33:44;20.30;99.90
54431;DHT22;40342;52.998;5.862;2023-06-26T04:36:10;20.30;99.90
54431;DHT22;40342;52.998;5.862;2023-06-26T04:38:36;20.30;99.90
54431;DHT22;40342;52.998;5.862;2023-06-26T04:41:02;20.30;99.90
54431;DHT22;40342;52.998;5.862;2023-06-26T04:43:28;20.30;99.90
54431;DHT22;40342;52.998;5.862;2023-06-26T04:45:53;20.40;99.90
54431;DHT22;40342;52.998;5.862;2023-06-26T04:48:19;20.30;99.90
54431;DHT22;40342;52.998;5.862;2023-06-26T04:50:45;20.30;99.90
54431;DHT22;40342;52.998;5.862;2023-06-26T04:53:18;20.30;99.90
54431;DHT22;40342;52.998;5.862;2023-06-26T04:55:43;20.30;99.90
54431;DHT22;40342;52.998;5.862;2023-06-26T04:58:09;20.20;99.90
54431;DHT22;40342;52.998;5.862;2023-06-26T05:00:34;20.20;99.90
54431;DHT22;40342;52.998;5.862;2023-06-26T05:03:01;20.10;99.90
54431;DHT22;40342;52.998;5.862;2023-06-26T05:05:27;20.10;99.90
54431;DHT22;40342;52.998;5.862;2023-06-26T05:07:56;20.00;99.90
54431;DHT22;40342;52.998;5.862;2023-06-26T05:10:22;20.00;99.90
54431;DHT22;40342;52.998;5.862;2023-06-26T05:12:48;19.90;99.90
54431;DHT22;40342;52.998;5.862;2023-06-26T05:15:13;19.90;99.90
54431;DHT22;40342;52.998;5.862;2023-06-26T05:17:39;19.90;99.90
54431;DHT22;40342;52.998;5.862;2023-06-26T05:20:05;19.90;99.90
54431;DHT22;40342;52.998;5.862;2023-06-26T05:22:32;19.90;99.90
54431;DHT22;40342;52.998;5.862;2023-06-26T05:24:59;19.90;99.90
54431;DHT22;40342;52.998;5.862;2023-06-26T05:27:26;19.90;99.90
54431;DHT22;40342;52.998;5.862;2023-06-26T05:29:52;19.90;99.90
54431;DHT22;40342;52.998;5.862;2023-06-26T05:32:18;19.90;99.90
54431;DHT22;40342;52.998;5.862;2023-06-26T05:34:48;19.80;99.90
54431;DHT22;40342;52.998;5.862;2023-06-26T05:37:20;19.80;99.90
54431;DHT22;40342;52.998;5.862;2023-06-26T05:39:46;19.80;99.90
54431;DHT22;40342;52.998;5.862;2023-06-26T05:42:12;19.80;99.90
54431;DHT22;40342;52.998;5.862;2023-06-26T05:44:38;19.80;99.90
54431;DHT22;40342;52.998;5.862;2023-06-26T05:47:04;19.80;99.90
54431;DHT22;40342;52.998;5.862;2023-06-26T05:49:29;19.80;99.90
54431;DHT22;40342;52.998;5.862;2023-06-26T05:51:55;19.80;99.90
54431;DHT22;40342;52.998;5.862;2023-06-26T05:54:22;19.80;99.90
54431;DHT22;40342;52.998;5.862;2023-06-26T05:56:48;19.80;99.90
54431;DHT22;40342;52.998;5.862;2023-06-26T05:59:15;19.90;99.90
54431;DHT22;40342;52.998;5.862;2023-06-26T06:01:42;19.90;99.90
54431;DHT22;40342;52.998;5.862;2023-06-26T06:04:07;19.90;99.90
54431;DHT22;40342;52.998;5.862;2023-06-26T06:06:33;19.90;99.90
54431;DHT22;40342;52.998;5.862;2023-06-26T06:08:58;19.90;99.90
54431;DHT22;40342;52.998;5.862;2023-06-26T06:11:24;19.90;99.90
54431;DHT22;40342;52.998;5.862;2023-06-26T06:13:49;19.90;99.90
54431;DHT22;40342;52.998;5.862;2023-06-26T06:16:15;19.90;99.90
54431;DHT22;40342;52.998;5.862;2023-06-26T06:18:41;19.90;99.90
54431;DHT22;40342;52.998;5.862;2023-06-26T06:21:06;20.00;99.90
54431;DHT22;40342;52.998;5.862;2023-06-26T06:23:32;20.10;99.90
54431;DHT22;40342;52.998;5.862;2023-06-26T06:25:57;20.40;99.90
54431;DHT22;40342;52.998;5.862;2023-06-26T06:28:23;20.50;99.90
54431;DHT22;40342;52.998;5.862;2023-06-26T06:30:48;20.80;99.90
54431;DHT22;40342;52.998;5.862;2023-06-26T06:33:14;21.00;99.90
54431;DHT22;40342;52.998;5.862;2023-06-26T06:35:40;21.10;99.90
54431;DHT22;40342;52.998;5.862;2023-06-26T06:38:05;21.10;99.90
54431;DHT22;40342;52.998;5.862;2023-06-26T06:40:31;21.00;99.90
54431;DHT22;40342;52.998;5.862;2023-06-26T06:42:56;20.90;99.90
54431;DHT22;40342;52.998;5.862;2023-06-26T06:45:22;20.80;99.90
54431;DHT22;40342;52.998;5.862;2023-06-26T06:47:47;20.70;99.90
54431;DHT22;40342;52.998;5.862;2023-06-26T06:50:13;20.60;99.90
54431;DHT22;40342;52.998;5.862;2023-06-26T06:52:42;20.60;99.90
54431;DHT22;40342;52.998;5.862;2023-06-26T06:55:08;20.50;99.90
54431;DHT22;40342;52.998;5.862;2023-06-26T06:57:38;20.50;99.90
54431;DHT22;40342;52.998;5.862;2023-06-26T07:00:09;20.50;99.90
54431;DHT22;40342;52.998;5.862;2023-06-26T07:02:36;20.50;99.90
54431;DHT22;40342;52.998;5.862;2023-06-26T07:05:03;20.50;99.90
54431;DHT22;40342;52.998;5.862;2023-06-26T07:07:30;20.50;99.90
54431;DHT22;40342;52.998;5.862;2023-06-26T07:09:58;20.50;99.90
54431;DHT22;40342;52.998;5.862;2023-06-26T07:12:24;20.50;99.90
54431;DHT22;40342;52.998;5.862;2023-06-26T07:14:49;20.50;99.90
54431;DHT22;40342;52.998;5.862;2023-06-26T07:17:15;20.60;99.90
54431;DHT22;40342;52.998;5.862;2023-06-26T07:19:41;20.60;99.90
54431;DHT22;40342;52.998;5.862;2023-06-26T07:22:06;20.60;99.90
54431;DHT22;40342;52.998;5.862;2023-06-26T07:24:32;20.70;99.90
54431;DHT22;40342;52.998;5.862;2023-06-26T07:26:58;20.70;99.90
54431;DHT22;40342;52.998;5.862;2023-06-26T07:29:23;20.70;99.90
54431;DHT22;40342;52.998;5.862;2023-06-26T07:31:49;20.80;99.90
54431;DHT22;40342;52.998;5.862;2023-06-26T07:34:14;20.80;99.90
54431;DHT22;40342;52.998;5.862;2023-06-26T07:36:40;20.80;99.90
54431;DHT22;40342;52.998;5.862;2023-06-26T07:39:05;20.80;99.90
54431;DHT22;40342;52.998;5.862;2023-06-26T07:41:31;20.80;99.90
54431;DHT22;40342;52.998;5.862;2023-06-26T07:43:58;20.80;99.90
54431;DHT22;40342;52.998;5.862;2023-06-26T07:46:23;20.80;99.90
54431;DHT22;40342;52.998;5.862;2023-06-26T07:48:49;20.70;99.90
54431;DHT22;40342;52.998;5.862;2023-06-26T07:51:15;20.70;99.90
54431;DHT22;40342;52.998;5.862;2023-06-26T07:53:40;20.80;99.90
54431;DHT22;40342;52.998;5.862;2023-06-26T07:56:06;20.90;99.90
54431;DHT22;40342;52.998;5.862;2023-06-26T07:58:32;20.90;99.90
54431;DHT22;40342;52.998;5.862;2023-06-26T08:00:57;20.90;99.90
54431;DHT22;40342;52.998;5.862;2023-06-26T08:03:23;20.80;99.90
54431;DHT22;40342;52.998;5.862;2023-06-26T08:05:49;20.80;99.90
54431;DHT22;40342;52.998;5.862;2023-06-26T08:08:15;20.80;99.90
54431;DHT22;40342;52.998;5.862;2023-06-26T08:10:40;20.80;99.90
54431;DHT22;40342;52.998;5.862;2023-06-26T08:13:06;20.80;99.90
54431;DHT22;40342;52.998;5.862;2023-06-26T08:15:31;20.80;99.90
54431;DHT22;40342;52.998;5.862;2023-06-26T08:17:57;20.80;99.90
54431;DHT22;40342;52.998;5.862;2023-06-26T08:20:23;20.80;99.90
54431;DHT22;40342;52.998;5.862;2023-06-26T08:22:48;20.80;99.90
54431;DHT22;40342;52.998;5.862;2023-06-26T08:25:16;20.80;99.90
54431;DHT22;40342;52.998;5.862;2023-06-26T08:27:42;20.80;99.90
54431;DHT22;40342;52.998;5.862;2023-06-26T08:30:08;20.90;99.90
54431;DHT22;40342;52.998;5.862;2023-06-26T08:32:34;20.80;99.90
54431;DHT22;40342;52.998;5.862;2023-06-26T08:35:00;20.80;99.90
54431;DHT22;40342;52.998;5.862;2023-06-26T08:37:25;20.80;99.90
54431;DHT22;40342;52.998;5.862;2023-06-26T08:39:51;20.80;99.90
54431;DHT22;40342;52.998;5.862;2023-06-26T08:42:16;20.80;99.90
54431;DHT22;40342;52.998;5.862;2023-06-26T08:44:42;20.90;99.90
54431;DHT22;40342;52.998;5.862;2023-06-26T08:47:09;20.80;99.90
54431;DHT22;40342;52.998;5.862;2023-06-26T08:52:23;20.70;99.90
54431;DHT22;40342;52.998;5.862;2023-06-26T08:54:58;20.70;99.90
54431;DHT22;40342;52.998;5.862;2023-06-26T08:57:25;20.80;99.90
54431;DHT22;40342;52.998;5.862;2023-06-26T08:59:52;21.00;99.90
54431;DHT22;40342;52.998;5.862;2023-06-26T09:02:18;21.10;99.90
54431;DHT22;40342;52.998;5.862;2023-06-26T09:04:43;21.10;99.90
54431;DHT22;40342;52.998;5.862;2023-06-26T09:07:09;21.10;99.90
54431;DHT22;40342;52.998;5.862;2023-06-26T09:09:35;21.20;99.90
54431;DHT22;40342;52.998;5.862;2023-06-26T09:12:04;21.20;99.90
54431;DHT22;40342;52.998;5.862;2023-06-26T09:14:30;21.10;99.90
54431;DHT22;40342;52.998;5.862;2023-06-26T09:16:58;21.00;99.90
54431;DHT22;40342;52.998;5.862;2023-06-26T09:19:23;21.00;99.90
54431;DHT22;40342;52.998;5.862;2023-06-26T09:21:50;21.10;99.90
54431;DHT22;40342;52.998;5.862;2023-06-26T09:24:17;21.30;99.90
54431;DHT22;40342;52.998;5.862;2023-06-26T09:26:43;21.30;99.90
54431;DHT22;40342;52.998;5.862;2023-06-26T09:29:09;21.40;99.90
54431;DHT22;40342;52.998;5.862;2023-06-26T09:31:37;21.40;99.90
54431;DHT22;40342;52.998;5.862;2023-06-26T09:34:03;21.40;99.90
54431;DHT22;40342;52.998;5.862;2023-06-26T09:36:29;21.50;99.90
54431;DHT22;40342;52.998;5.862;2023-06-26T09:39:03;21.60;99.90
54431;DHT22;40342;52.998;5.862;2023-06-26T09:41:30;21.60;99.90
54431;DHT22;40342;52.998;5.862;2023-06-26T09:44:00;21.70;99.90
54431;DHT22;40342;52.998;5.862;2023-06-26T09:46:27;21.80;99.90
54431;DHT22;40342;52.998;5.862;2023-06-26T09:49:02;21.80;99.90
54431;DHT22;40342;52.998;5.862;2023-06-26T09:51:34;21.90;99.90
54431;DHT22;40342;52.998;5.862;2023-06-26T09:54:01;21.80;99.90
54431;DHT22;40342;52.998;5.862;2023-06-26T09:56:28;21.70;99.90
54431;DHT22;40342;52.998;5.862;2023-06-26T09:59:01;21.70;99.90
54431;DHT22;40342;52.998;5.862;2023-06-26T10:01:27;21.70;99.90
54431;DHT22;40342;52.998;5.862;2023-06-26T10:03:54;21.70;99.90
54431;DHT22;40342;52.998;5.862;2023-06-26T10:06:31;21.80;99.90
54431;DHT22;40342;52.998;5.862;2023-06-26T10:09:00;22.00;99.90
54431;DHT22;40342;52.998;5.862;2023-06-26T10:11:36;22.00;99.90
54431;DHT22;40342;52.998;5.862;2023-06-26T10:14:04;21.90;99.90
54431;DHT22;40342;52.998;5.862;2023-06-26T10:16:32;21.80;99.90
54431;DHT22;40342;52.998;5.862;2023-06-26T10:19:03;21.70;99.90
54431;DHT22;40342;52.998;5.862;2023-06-26T10:21:32;21.70;99.90
54431;DHT22;40342;52.998;5.862;2023-06-26T10:23:58;21.80;99.90
54431;DHT22;40342;52.998;5.862;2023-06-26T10:26:25;21.90;99.90
54431;DHT22;40342;52.998;5.862;2023-06-26T10:28:53;21.80;99.90
54431;DHT22;40342;52.998;5.862;2023-06-26T10:31:22;21.80;99.90
54431;DHT22;40342;52.998;5.862;2023-06-26T10:33:49;21.70;99.90
54431;DHT22;40342;52.998;5.862;2023-06-26T10:36:20;21.70;99.90
54431;DHT22;40342;52.998;5.862;2023-06-26T10:38:58;21.80;99.90
54431;DHT22;40342;52.998;5.862;2023-06-26T10:41:25;22.00;99.90
54431;DHT22;40342;52.998;5.862;2023-06-26T10:44:16;21.90;99.90
54431;DHT22;40342;52.998;5.862;2023-06-26T10:46:54;21.80;99.90
54431;DHT22;40342;52.998;5.862;2023-06-26T10:49:27;21.80;99.90
54431;DHT22;40342;52.998;5.862;2023-06-26T10:51:53;21.80;99.90
54431;DHT22;40342;52.998;5.862;2023-06-26T10:54:21;21.80;99.90
54431;DHT22;40342;52.998;5.862;2023-06-26T10:56:49;21.90;99.90
54431;DHT22;40342;52.998;5.862;2023-06-26T10:59:23;22.10;99.90
54431;DHT22;40342;52.998;5.862;2023-06-26T11:01:58;22.30;99.90
54431;DHT22;40342;52.998;5.862;2023-06-26T11:04:40;22.90;99.90
54431;DHT22;40342;52.998;5.862;2023-06-26T11:07:25;22.30;99.90
54431;DHT22;40342;52.998;5.862;2023-06-26T11:12:37;22.50;99.90
54431;DHT22;40342;52.998;5.862;2023-06-26T11:15:16;22.50;99.90
54431;DHT22;40342;52.998;5.862;2023-06-26T11:17:43;22.70;99.90
54431;DHT22;40342;52.998;5.862;2023-06-26T11:20:11;22.80;99.90
54431;DHT22;40342;52.998;5.862;2023-06-26T11:22:39;22.80;99.90
54431;DHT22;40342;52.998;5.862;2023-06-26T11:25:06;22.80;99.90
54431;DHT22;40342;52.998;5.862;2023-06-26T11:27:38;22.90;99.90
54431;DHT22;40342;52.998;5.862;2023-06-26T11:30:05;22.90;99.90
54431;DHT22;40342;52.998;5.862;2023-06-26T11:32:31;23.00;99.90
54431;DHT22;40342;52.998;5.862;2023-06-26T11:34:58;23.10;99.90
54431;DHT22;40342;52.998;5.862;2023-06-26T11:37:25;23.10;99.90
54431;DHT22;40342;52.998;5.862;2023-06-26T11:39:50;23.30;99.90
54431;DHT22;40342;52.998;5.862;2023-06-26T11:42:20;23.30;99.80
54431;DHT22;40342;52.998;5.862;2023-06-26T11:44:47;23.20;98.50
54431;DHT22;40342;52.998;5.862;2023-06-26T11:47:18;22.90;98.70
54431;DHT22;40342;52.998;5.862;2023-06-26T11:49:45;22.60;99.80
54431;DHT22;40342;52.998;5.862;2023-06-26T11:52:11;22.50;99.00
54431;DHT22;40342;52.998;5.862;2023-06-26T11:54:36;22.50;99.90
54431;DHT22;40342;52.998;5.862;2023-06-26T11:57:03;22.50;99.90
54431;DHT22;40342;52.998;5.862;2023-06-26T11:59:37;22.60;99.70
54431;DHT22;40342;52.998;5.862;2023-06-26T12:02:10;22.40;99.10
54431;DHT22;40342;52.998;5.862;2023-06-26T12:04:40;22.40;99.90
54431;DHT22;40342;52.998;5.862;2023-06-26T12:07:07;22.50;99.90
54431;DHT22;40342;52.998;5.862;2023-06-26T12:09:38;22.50;99.90
54431;DHT22;40342;52.998;5.862;2023-06-26T12:12:06;22.60;99.90
54431;DHT22;40342;52.998;5.862;2023-06-26T12:14:32;22.70;99.90
54431;DHT22;40342;52.998;5.862;2023-06-26T12:17:05;22.70;99.90
54431;DHT22;40342;52.998;5.862;2023-06-26T12:19:31;22.70;99.80
54431;DHT22;40342;52.998;5.862;2023-06-26T12:21:58;22.60;99.50
54431;DHT22;40342;52.998;5.862;2023-06-26T12:24:24;22.50;99.70
54431;DHT22;40342;52.998;5.862;2023-06-26T12:26:54;22.40;99.50
54431;DHT22;40342;52.998;5.862;2023-06-26T12:29:32;22.30;99.90
54431;DHT22;40342;52.998;5.862;2023-06-26T12:31:58;22.30;99.80
54431;DHT22;40342;52.998;5.862;2023-06-26T12:34:28;22.20;99.90
54431;DHT22;40342;52.998;5.862;2023-06-26T12:36:53;22.10;99.90
54431;DHT22;40342;52.998;5.862;2023-06-26T12:39:24;22.00;99.90
54431;DHT22;40342;52.998;5.862;2023-06-26T12:41:54;21.90;99.90
54431;DHT22;40342;52.998;5.862;2023-06-26T12:44:28;21.90;99.90
54431;DHT22;40342;52.998;5.862;2023-06-26T12:46:59;21.90;99.90
54431;DHT22;40342;52.998;5.862;2023-06-26T12:49:35;22.00;99.90
54431;DHT22;40342;52.998;5.862;2023-06-26T12:52:03;21.90;99.90
54431;DHT22;40342;52.998;5.862;2023-06-26T12:54:29;21.90;99.90
54431;DHT22;40342;52.998;5.862;2023-06-26T12:56:55;22.10;99.90
54431;DHT22;40342;52.998;5.862;2023-06-26T12:59:21;22.00;99.90
54431;DHT22;40342;52.998;5.862;2023-06-26T13:01:47;22.20;99.90
54431;DHT22;40342;52.998;5.862;2023-06-26T13:04:13;22.30;99.90
54431;DHT22;40342;52.998;5.862;2023-06-26T13:06:42;22.40;99.90
54431;DHT22;40342;52.998;5.862;2023-06-26T13:09:07;22.50;99.90
54431;DHT22;40342;52.998;5.862;2023-06-26T13:11:33;22.50;99.90
54431;DHT22;40342;52.998;5.862;2023-06-26T13:14:00;22.50;99.40
54431;DHT22;40342;52.998;5.862;2023-06-26T13:16:26;22.50;99.90
54431;DHT22;40342;52.998;5.862;2023-06-26T13:18:51;22.60;99.50
54431;DHT22;40342;52.998;5.862;2023-06-26T13:21:17;22.60;99.30
54431;DHT22;40342;52.998;5.862;2023-06-26T13:23:45;22.80;99.80
54431;DHT22;40342;52.998;5.862;2023-06-26T13:26:11;22.90;99.70
54431;DHT22;40342;52.998;5.862;2023-06-26T13:28:37;23.00;99.20
54431;DHT22;40342;52.998;5.862;2023-06-26T13:31:03;23.10;99.50
54431;DHT22;40342;52.998;5.862;2023-06-26T13:33:30;23.10;98.70
54431;DHT22;40342;52.998;5.862;2023-06-26T13:35:56;22.90;98.40
54431;DHT22;40342;52.998;5.862;2023-06-26T13:38:22;22.90;98.90
54431;DHT22;40342;52.998;5.862;2023-06-26T13:40:54;22.90;99.60
54431;DHT22;40342;52.998;5.862;2023-06-26T13:43:22;22.80;98.40
54431;DHT22;40342;52.998;5.862;2023-06-26T13:45:49;22.80;98.30
54431;DHT22;40342;52.998;5.862;2023-06-26T13:48:14;22.70;98.00
54431;DHT22;40342;52.998;5.862;2023-06-26T13:50:40;22.70;99.30
54431;DHT22;40342;52.998;5.862;2023-06-26T13:53:06;22.70;99.10
54431;DHT22;40342;52.998;5.862;2023-06-26T13:55:33;22.80;97.60
54431;DHT22;40342;52.998;5.862;2023-06-26T13:57:59;22.70;98.20
54431;DHT22;40342;52.998;5.862;2023-06-26T14:00:25;22.70;97.80
54431;DHT22;40342;52.998;5.862;2023-06-26T14:02:51;22.60;98.60
54431;DHT22;40342;52.998;5.862;2023-06-26T14:05:16;22.70;98.20
54431;DHT22;40342;52.998;5.862;2023-06-26T14:07:44;22.70;98.90
54431;DHT22;40342;52.998;5.862;2023-06-26T14:10:10;22.70;98.90
54431;DHT22;40342;52.998;5.862;2023-06-26T14:12:36;22.70;99.10
54431;DHT22;40342;52.998;5.862;2023-06-26T14:15:02;22.70;98.90
54431;DHT22;40342;52.998;5.862;2023-06-26T14:17:28;22.60;98.60
54431;DHT22;40342;52.998;5.862;2023-06-26T14:19:54;22.70;99.00
54431;DHT22;40342;52.998;5.862;2023-06-26T14:22:20;22.60;98.70
54431;DHT22;40342;52.998;5.862;2023-06-26T14:24:46;22.70;99.40
54431;DHT22;40342;52.998;5.862;2023-06-26T14:27:12;22.70;98.60
54431;DHT22;40342;52.998;5.862;2023-06-26T14:29:37;22.50;98.30
54431;DHT22;40342;52.998;5.862;2023-06-26T14:32:03;22.30;98.90
54431;DHT22;40342;52.998;5.862;2023-06-26T14:34:29;22.20;99.10
54431;DHT22;40342;52.998;5.862;2023-06-26T14:36:55;22.20;99.30
54431;DHT22;40342;52.998;5.862;2023-06-26T14:39:20;22.20;99.10
54431;DHT22;40342;52.998;5.862;2023-06-26T14:41:46;22.30;98.40
54431;DHT22;40342;52.998;5.862;2023-06-26T14:44:13;22.30;98.30
54431;DHT22;40342;52.998;5.862;2023-06-26T14:46:39;22.30;98.00
54431;DHT22;40342;52.998;5.862;2023-06-26T14:49:05;22.30;98.00
54431;DHT22;40342;52.998;5.862;2023-06-26T14:51:30;22.30;97.90
54431;DHT22;40342;52.998;5.862;2023-06-26T14:53:56;22.30;98.00
54431;DHT22;40342;52.998;5.862;2023-06-26T14:56:21;22.30;97.70
54431;DHT22;40342;52.998;5.862;2023-06-26T14:58:47;22.20;97.90
54431;DHT22;40342;52.998;5.862;2023-06-26T15:01:13;22.20;97.40
54431;DHT22;40342;52.998;5.862;2023-06-26T15:03:42;22.10;97.50
54431;DHT22;40342;52.998;5.862;2023-06-26T15:06:08;22.00;97.40
54431;DHT22;40342;52.998;5.862;2023-06-26T15:08:34;22.00;97.20
54431;DHT22;40342;52.998;5.862;2023-06-26T15:11:01;21.90;96.50
54431;DHT22;40342;52.998;5.862;2023-06-26T15:13:26;21.80;96.40
54431;DHT22;40342;52.998;5.862;2023-06-26T15:15:52;21.80;96.90
54431;DHT22;40342;52.998;5.862;2023-06-26T15:18:18;21.80;97.30
54431;DHT22;40342;52.998;5.862;2023-06-26T15:20:43;21.90;96.90
54431;DHT22;40342;52.998;5.862;2023-06-26T15:23:09;21.90;96.70
54431;DHT22;40342;52.998;5.862;2023-06-26T15:25:34;22.00;96.80
54431;DHT22;40342;52.998;5.862;2023-06-26T15:28:02;22.00;96.10
54431;DHT22;40342;52.998;5.862;2023-06-26T15:30:28;22.00;95.80
54431;DHT22;40342;52.998;5.862;2023-06-26T15:32:54;22.00;95.70
54431;DHT22;40342;52.998;5.862;2023-06-26T15:35:19;22.00;95.40
54431;DHT22;40342;52.998;5.862;2023-06-26T15:37:45;22.00;94.90